• Join FlightAware (Why Join?)
  • Login
  • US Flag 
08:16AM EDT


 

Airport Tracker/Info


-or-


 

Live Flight TrackerFlight Track Log ✈ ASQ5153 ✈ 12-Apr-2013 ✈ KATL - KGNV

Flight Track Log - Related Links

Times and Time Zones

All times are in EDT time to prevent confusion due to time zone crossing. See the ASQ5153 flight status page for this flight to view local times or setup timezone preferences in your user account.

Time Position Orientation Groundspeed Altitude Reporting Facility
EDT Latitude Longitude Course Direction KTS MPH feet Rate Location/Type
06:45PM 33.6333 -84.4500 270° West 168 193 2,400  Level Atlanta TRACON
06:46PM 33.6333 -84.5333 270° West 246 283 4,100 2,400 Climbing Atlanta TRACON
06:47PM 33.6333 -84.6167 270° West 252 290 7,200 2,700 Climbing Atlanta TRACON
06:48PM 33.5833 -84.6833 228° Southwest 293 337 9,800 1,380 Climbing Atlanta TRACON
06:49PM 33.5000 -84.6833 180° South 349 402 10,000 840 Climbing Atlanta TRACON
06:51PM 33.3297 -84.5436 146° Southeast 397 457 12,300 1,320 Climbing Atlanta Center
06:52PM 33.2489 -84.4536 137° Southeast 397 457 14,100 1,620 Climbing Atlanta Center
06:53PM 33.1697 -84.3664 137° Southeast 391 450 15,600 1,440 Climbing Atlanta Center
06:54PM 33.0864 -84.2744 137° Southeast 397 457 17,000 1,380 Climbing Atlanta Center
06:55PM 33.0053 -84.1875 138° Southeast 397 457 18,400 1,080 Climbing Atlanta Center
06:56PM 32.9008 -84.1378 158° South 387 445 19,200 840 Climbing Atlanta Center
06:57PM 32.7944 -84.0931 161° South 394 453 20,100 960 Climbing Atlanta Center
06:58PM 32.6881 -84.0461 160° South 407 468 21,200 1,080 Climbing Atlanta Center
06:59PM 32.5794 -84.0044 162° South 407 468 22,300 960 Climbing Atlanta Center
07:00PM 32.4731 -83.9600 161° South 407 468 23,200 780 Climbing Atlanta Center
07:01PM 32.3622 -83.9158 161° South 407 468 23,900 660 Climbing Atlanta Center
07:04PM 32.0964 -83.8047 160° South 421 484 25,600 600 Climbing Jacksonville Center
07:05PM 31.9861 -83.7597 161° South 426 490 26,100 480 Climbing Jacksonville Center
07:06PM 31.8736 -83.7122 160° South 431 496 26,600 420 Climbing Jacksonville Center
07:07PM 31.7633 -83.6525 155° Southeast 431 496 27,000 180 Climbing Jacksonville Center
07:08PM 31.6428 -83.5711 150° Southeast 448 516 27,000  Level Jacksonville Center
07:09PM 31.5283 -83.4922 150° Southeast 461 531 27,000  Level Jacksonville Center
07:10PM 31.4158 -83.4183 151° Southeast 461 531 27,000  Level Jacksonville Center
07:11PM 31.3033 -83.3425 150° Southeast 466 536 27,000  Level Jacksonville Center
07:12PM 31.1889 -83.2642 150° Southeast 466 536 27,000  Level Jacksonville Center
07:13PM 31.0722 -83.1861 150° Southeast 471 542 27,000 -240 Level Jacksonville Center
07:14PM 30.9575 -83.1081 150° Southeast 471 542 26,600 -480 Descending Jacksonville Center
07:15PM 30.8406 -83.0331 151° Southeast 482 555 26,100 -480 Descending Jacksonville Center
07:16PM 30.7364 -82.9603 149° Southeast 482 555 25,700 -660 Descending Jacksonville Center
07:17PM 30.6153 -82.8831 151° Southeast 487 560 24,800 -2,040 Descending Jacksonville Center
07:18PM 30.5003 -82.8058 150° Southeast 481 554 21,700 -3,420 Descending Jacksonville Center
07:19PM 30.3939 -82.7336 150° Southeast 465 535 18,000 -3,540 Descending Jacksonville Center
07:20PM 30.2914 -82.6664 150° Southeast 441 507 14,700 -3,120 Descending Jacksonville Center
07:21PM 30.1972 -82.6067 151° Southeast 418 481 11,800 -2,040 Descending Jacksonville Center
07:22PM 30.1094 -82.5492 150° Southeast 385 443 10,700 -1,080 Descending Jacksonville Center
07:22PM 30.0761 -82.5300 154° Southeast 296 341 10,400 -1,320 Descending Jacksonville Center
07:23PM 30.0383 -82.5014 147° Southeast 336 387 9,400 -1,800 Descending Jacksonville Center
07:23PM 30.0092 -82.4847 154° Southeast 280 322 8,600 -2,220 Descending Jacksonville Center
07:24PM 29.9714 -82.4586 149° Southeast 298 343 7,200 -2,580 Descending Jacksonville Center
07:24PM 29.9422 -82.4419 154° Southeast 273 314 6,000 -2,520 Descending Jacksonville Center
07:25PM 29.9064 -82.4158 148° Southeast 281 323 4,700 -2,220 Descending Jacksonville Center
07:25PM 29.8814 -82.4014 153° Southeast 267 307 4,000 -1,740 Descending Jacksonville Center
07:26PM 29.8436 -82.3731 147° Southeast 270 311 3,000 -1,020 Descending Jacksonville Center
07:26PM 29.8206 -82.3564 148° Southeast 262 302 3,000 -120 Level Jacksonville Center
07:27PM 29.8058 -82.3181 114° Southeast 251 289 2,900 -420 Descending Jacksonville Center
07:27PM 29.7933 -82.2919 119° Southeast 219 252 2,600 -900 Descending Jacksonville Center
07:28PM 29.7764 -82.2561 119° Southeast 227 261 2,000 -540 Descending Jacksonville Center
07:28PM 29.7575 -82.2228 123° Southeast 217 250 2,000 -300 Level Jacksonville Center
07:29PM 29.7447 -82.1964 119° Southeast 222 255 1,700 -300 Descending Jacksonville Center
07:29PM 29.7156 -82.1967 180° South 170 196 1,700 -420 Level Jacksonville Center
07:30PM 29.6989 -82.1967 180° South 169 194 1,300 -840 Descending Jacksonville Center
07:30PM 29.6822 -82.2114 218° Southwest 138 159 900 -420 Descending Jacksonville Center
07:31PM 29.6592 -82.1994 156° South 161 185 900  Level Jacksonville Center